Weather at Hermes Quijada International Airport

Public forecast

Using degrees Celsius for public forecast. Weather courtesy of forecast.io.

Current aviation weather report (METAR) for Hermes Quijada International Airport

Retrieved 2020/11/28 15:00 UTC (57 minutes ago):

SAWE 281500Z 27025G36KT 9999 FEW015 BKN021 11/03 Q0991

Aviation forecast (TAF) for Hermes Quijada International Airport

Retrieved 2020/11/28 12:00 UTC (4 hours ago):

TAF SAWE 281100Z 2812/2912 27025G35KT 9999 SCT020 TX11/2819Z TN02/2809Z PROB30 TEMPO 2816/2820 6000 -RADZ BKN030 OVC040 BECMG 2902/2904 29020KT